Time;durP1;ratioP1;P1;durP2;ratioP2;P2;SDS_P1;SDS_P2;PMS_P1;PMS_P2;Temp;Humidity;BMP_temperature;BMP_pressure;BME280_temperature;BME280_humidity;BME280_pressure;Samples;Min_cycle;Max_cycle;Signal;HPM_P1;HPM_P2
2024/03/09 00:01:18;;;;;;;;;;;;;;;;;;6313155;28;20019;-61
2024/03/09 00:04:22;;;;;;;;;;;;;;;;;;6312373;28;19987;-60
2024/03/09 00:07:26;;;;;;;;;;;;;;;;;;6310622;28;19987;-60
2024/03/09 00:10:30;;;;;;;2.20;2.20;;;;;;;;;;6306238;28;19980;-60
2024/03/09 00:13:36;;;;;;;1.80;1.80;;;;;;;;;;6311868;28;20295;-60
2024/03/09 00:16:43;;;;;;;2.00;2.00;;;;;;;;;;6312124;28;20579;-60
2024/03/09 00:19:47;;;;;;;2.57;2.47;;;;;;;;;;6310589;28;20282;-61
2024/03/09 00:22:52;;;;;;;2.37;2.37;;;;;;;;;;6309700;28;20424;-60
2024/03/09 00:25:57;;;;;;;2.33;2.33;;;;;;;;;;6311259;28;20271;-60
2024/03/09 00:29:03;;;;;;;2.73;2.60;;;;;;;;;;6310987;28;20298;-60
2024/03/09 00:32:08;;;;;;;2.73;2.63;;;;;;;;;;6311559;28;20290;-60
2024/03/09 00:35:12;;;;;;;3.00;2.80;;;;;;;;;;6303113;28;20462;-65
2024/03/09 00:38:17;;;;;;;3.20;3.00;;;;;;;;;;6310576;28;20290;-60
2024/03/09 00:41:21;;;;;;;3.03;2.73;;;;;;;;;;6310895;28;20301;-60
2024/03/09 00:44:27;;;;;;;2.70;2.60;;;;;;;;;;6292429;28;20294;-59
2024/03/09 00:47:31;;;;;;;;;;;;;;;;;;6311769;28;20295;-60
2024/03/09 00:50:35;;;;;;;2.63;2.53;;;;;;;;;;6310828;28;20031;-60
2024/03/09 00:53:39;;;;;;;2.40;2.30;;;;;;;;;;6310028;28;20294;-59
2024/03/09 00:56:44;;;;;;;2.63;2.53;;;;;;;;;;6310572;28;20491;-60
2024/03/09 00:59:49;;;;;;;2.67;2.50;;;;;;;;;;6309999;28;20465;-60
2024/03/09 01:02:53;;;;;;;2.37;2.27;;;;;;;;;;6309616;28;20290;-60
2024/03/09 01:05:57;;;;;;;2.70;2.60;;;;;;;;;;6310282;28;20384;-59
2024/03/09 01:09:02;;;;;;;2.10;2.10;;;;;;;;;;6309855;28;20471;-59
2024/03/09 01:12:07;;;;;;;2.30;2.20;;;;;;;;;;6292141;28;20299;-60
2024/03/09 01:15:13;;;;;;;2.57;2.00;;;;;;;;;;6309558;28;20585;-59
2024/03/09 01:18:17;;;;;;;2.33;2.17;;;;;;;;;;6309937;28;20285;-59
2024/03/09 01:21:22;;;;;;;2.40;2.30;;;;;;;;;;6309952;28;20495;-59
2024/03/09 01:24:25;;;;;;;2.10;2.10;;;;;;;;;;6309638;28;20480;-59
2024/03/09 01:27:30;;;;;;;1.87;1.87;;;;;;;;;;6309906;28;20301;-59
2024/03/09 01:30:37;;;;;;;1.70;1.70;;;;;;;;;;6291170;28;20302;-59
2024/03/09 01:33:41;;;;;;;2.43;2.33;;;;;;;;;;6309311;28;20295;-59
2024/03/09 01:36:44;;;;;;;;;;;;;;;;;;6310047;28;20107;-59
2024/03/09 01:39:48;;;;;;;;;;;;;;;;;;6309425;28;20160;-59
2024/03/09 01:42:51;;;;;;;;;;;;;;;;;;6309850;28;19984;-59
2024/03/09 01:45:56;;;;;;;;;;;;;;;;;;6310248;28;19991;-59
2024/03/09 01:49:00;;;;;;;1.80;1.80;;;;;;;;;;6309104;28;20468;-59
2024/03/09 01:52:05;;;;;;;2.10;2.10;;;;;;;;;;6309696;28;20313;-59
2024/03/09 01:55:11;;;;;;;2.10;2.00;;;;;;;;;;6309148;28;20310;-60
2024/03/09 01:58:19;;;;;;;2.40;2.30;;;;;;;;;;6291075;28;20298;-60
2024/03/09 02:01:25;;;;;;;2.50;2.40;;;;;;;;;;6310077;28;20571;-60
2024/03/09 02:04:30;;;;;;;2.70;2.50;;;;;;;;;;6309073;28;20299;-59
2024/03/09 02:07:35;;;;;;;2.40;2.30;;;;;;;;;;6287380;28;20299;-60
2024/03/09 02:10:39;;;;;;;2.90;2.70;;;;;;;;;;6285741;28;20305;-60
2024/03/09 02:13:44;;;;;;;2.73;2.63;;;;;;;;;;6309074;28;20254;-59
2024/03/09 02:16:50;;;;;;;2.93;2.57;;;;;;;;;;6308849;28;20270;-60
2024/03/09 02:19:54;;;;;;;2.77;2.67;;;;;;;;;;6308979;28;20467;-59
2024/03/09 02:22:59;;;;;;;3.10;3.00;;;;;;;;;;6308983;28;20246;-60
2024/03/09 02:26:06;;;;;;;2.80;2.70;;;;;;;;;;6309254;28;20230;-59
2024/03/09 02:29:13;;;;;;;4.80;2.60;;;;;;;;;;6309193;28;20294;-60
2024/03/09 02:32:17;;;;;;;2.60;2.50;;;;;;;;;;6309456;28;20452;-60
2024/03/09 02:35:21;;;;;;;2.60;2.50;;;;;;;;;;6309084;28;20289;-60
2024/03/09 02:38:25;;;;;;;2.70;2.60;;;;;;;;;;6308746;28;20289;-61
2024/03/09 02:41:31;;;;;;;2.70;2.50;;;;;;;;;;6309416;28;20406;-60
2024/03/09 02:44:34;;;;;;;2.27;2.17;;;;;;;;;;6309078;28;20302;-61
2024/03/09 02:47:41;;;;;;;1.90;1.90;;;;;;;;;;6312882;28;20294;-61
2024/03/09 02:50:45;;;;;;;2.43;2.33;;;;;;;;;;6312967;28;20297;-61
2024/03/09 02:53:51;;;;;;;2.13;2.10;;;;;;;;;;6313166;28;20293;-60
2024/03/09 02:56:58;;;;;;;2.03;2.00;;;;;;;;;;6313791;28;20301;-61
2024/03/09 03:00:02;;;;;;;2.13;2.13;;;;;;;;;;6313067;28;20290;-60
2024/03/09 03:06:33;;;;;;;1.87;1.87;;;;;;;;;;6303126;28;20293;-59
2024/03/09 03:09:37;;;;;;;1.90;1.90;;;;;;;;;;6313175;28;20298;-59
2024/03/09 03:12:42;;;;;;;2.17;2.17;;;;;;;;;;6313658;28;20297;-60
2024/03/09 03:15:46;;;;;;;2.57;2.47;;;;;;;;;;6312947;28;20301;-59
2024/03/09 03:18:50;;;;;;;2.53;2.33;;;;;;;;;;6312659;28;20301;-61
2024/03/09 03:21:54;;;;;;;2.20;2.20;;;;;;;;;;6312991;28;20282;-59
2024/03/09 03:24:58;;;;;;;2.33;2.17;;;;;;;;;;6312118;28;20297;-59
2024/03/09 03:28:05;;;;;;;2.50;2.40;;;;;;;;;;6312695;28;20479;-60
2024/03/09 03:31:10;;;;;;;2.23;2.23;;;;;;;;;;6313107;28;20290;-58
2024/03/09 03:34:13;;;;;;;2.20;2.20;;;;;;;;;;6294089;28;20289;-59
2024/03/09 03:37:18;;;;;;;2.40;2.30;;;;;;;;;;6312435;28;20289;-60
2024/03/09 03:40:24;;;;;;;2.20;2.20;;;;;;;;;;6311885;28;20297;-59
2024/03/09 03:43:29;;;;;;;1.93;1.93;;;;;;;;;;6312032;28;20293;-59
2024/03/09 03:46:33;;;;;;;2.07;2.07;;;;;;;;;;6312715;28;20297;-60
2024/03/09 03:49:38;;;;;;;2.20;2.20;;;;;;;;;;6312165;28;20294;-60
2024/03/09 03:52:42;;;;;;;1.90;1.80;;;;;;;;;;6312407;28;20293;-60
2024/03/09 03:55:47;;;;;;;1.80;1.80;;;;;;;;;;6311054;28;20286;-60
2024/03/09 03:58:53;;;;;;;2.70;1.80;;;;;;;;;;6311273;28;20302;-60
2024/03/09 04:01:57;;;;;;;1.53;1.53;;;;;;;;;;6321661;28;20250;-59
2024/03/09 04:05:02;;;;;;;1.73;1.73;;;;;;;;;;6310352;28;20310;-59
2024/03/09 04:08:07;;;;;;;1.90;1.90;;;;;;;;;;6310513;28;20298;-59
2024/03/09 04:11:12;;;;;;;1.70;1.70;;;;;;;;;;6311490;28;20291;-59
2024/03/09 04:14:18;;;;;;;1.70;1.70;;;;;;;;;;6311114;28;20294;-59
2024/03/09 04:17:22;;;;;;;1.60;1.60;;;;;;;;;;6312088;28;20289;-59
2024/03/09 04:20:28;;;;;;;1.50;1.50;;;;;;;;;;6310242;28;20309;-59
2024/03/09 04:23:32;;;;;;;1.90;1.90;;;;;;;;;;6310725;28;20294;-59
2024/03/09 04:26:36;;;;;;;1.97;1.97;;;;;;;;;;6311742;28;20598;-59
2024/03/09 04:29:44;;;;;;;1.67;1.67;;;;;;;;;;6310175;28;20298;-59
2024/03/09 04:32:48;;;;;;;1.57;1.57;;;;;;;;;;6310537;28;20298;-59
2024/03/09 04:35:52;;;;;;;1.77;1.77;;;;;;;;;;6310793;28;20289;-59
2024/03/09 04:39:00;;;;;;;1.90;1.90;;;;;;;;;;6310882;28;20298;-60
2024/03/09 04:42:05;;;;;;;1.80;1.80;;;;;;;;;;6310749;28;20306;-59
2024/03/09 04:45:11;;;;;;;2.10;2.10;;;;;;;;;;6309853;28;20305;-59
2024/03/09 04:48:15;;;;;;;1.93;1.90;;;;;;;;;;6309707;28;20301;-59
2024/03/09 04:51:19;;;;;;;2.00;2.00;;;;;;;;;;6310960;28;20589;-59
2024/03/09 04:54:23;;;;;;;2.20;2.10;;;;;;;;;;6310120;28;20293;-59
2024/03/09 04:57:31;;;;;;;1.87;1.80;;;;;;;;;;6309648;28;20305;-60
2024/03/09 05:00:38;;;;;;;2.47;2.20;;;;;;;;;;6310521;28;20307;-60
2024/03/09 05:03:41;;;;;;;1.90;1.90;;;;;;;;;;6310023;28;20294;-60
2024/03/09 05:06:45;;;;;;;2.07;2.00;;;;;;;;;;6292422;28;20294;-59
2024/03/09 05:09:49;;;;;;;2.40;2.20;;;;;;;;;;6309287;28;20566;-59
2024/03/09 05:12:57;;;;;;;1.70;1.70;;;;;;;;;;6309610;28;20282;-60
2024/03/09 05:16:02;;;;;;;2.13;2.13;;;;;;;;;;6310069;28;20286;-60
2024/03/09 05:19:07;;;;;;;2.47;2.37;;;;;;;;;;6309262;28;20302;-61
2024/03/09 05:22:12;;;;;;;2.10;2.10;;;;;;;;;;6310306;28;20290;-61
2024/03/09 05:25:17;;;;;;;2.10;2.00;;;;;;;;;;6308806;28;20294;-60
2024/03/09 05:28:20;;;;;;;1.87;1.87;;;;;;;;;;6286906;28;20291;-60
2024/03/09 05:31:27;;;;;;;1.80;1.80;;;;;;;;;;6285208;28;20446;-59
2024/03/09 05:34:34;;;;;;;1.70;1.70;;;;;;;;;;6284020;28;20297;-60
2024/03/09 05:37:38;;;;;;;1.50;1.50;;;;;;;;;;6283921;28;20297;-59
2024/03/09 05:40:42;;;;;;;1.60;1.60;;;;;;;;;;6285119;28;20346;-60
2024/03/09 05:43:46;;;;;;;;;;;;;;;;;;6284175;28;20333;-61
2024/03/09 05:46:51;;;;;;;;;;;;;;;;;;6285000;28;20277;-59
2024/03/09 05:49:55;;;;;;;;;;;;;;;;;;6284575;28;19984;-60
2024/03/09 05:53:00;;;;;;;1.60;1.60;;;;;;;;;;6284624;28;20251;-59
2024/03/09 05:56:04;;;;;;;;;;;;;;;;;;6267542;28;20120;-60
2024/03/09 05:59:08;;;;;;;1.60;1.60;;;;;;;;;;6284338;28;20256;-59
2024/03/09 06:02:13;;;;;;;;;;;;;;;;;;6285233;28;20113;-61
2024/03/09 06:05:19;;;;;;;1.53;1.53;;;;;;;;;;6284437;28;20261;-60
2024/03/09 06:08:23;;;;;;;3.73;1.90;;;;;;;;;;6283568;28;20297;-60
2024/03/09 06:11:27;;;;;;;1.67;1.67;;;;;;;;;;6301900;28;20289;-60
2024/03/09 06:14:31;;;;;;;1.80;1.70;;;;;;;;;;6308405;28;20298;-60
2024/03/09 06:17:36;;;;;;;1.40;1.40;;;;;;;;;;6308752;28;20301;-60
2024/03/09 06:20:42;;;;;;;1.70;1.70;;;;;;;;;;6310112;28;20317;-59
2024/03/09 06:23:47;;;;;;;1.80;1.70;;;;;;;;;;6295090;28;20296;-59
2024/03/09 06:26:51;;;;;;;1.70;1.70;;;;;;;;;;6314455;28;20306;-59
2024/03/09 06:29:56;;;;;;;1.73;1.73;;;;;;;;;;6313848;28;20453;-61
2024/03/09 06:33:01;;;;;;;1.77;1.77;;;;;;;;;;6313761;28;20293;-59
2024/03/09 06:36:08;;;;;;;1.70;1.70;;;;;;;;;;6314472;28;20317;-59
2024/03/09 06:39:12;;;;;;;1.50;1.50;;;;;;;;;;6313647;28;20289;-60
2024/03/09 06:42:17;;;;;;;1.60;1.60;;;;;;;;;;6314229;28;20298;-59
2024/03/09 06:45:22;;;;;;;1.70;1.70;;;;;;;;;;6313359;28;20298;-58
2024/03/09 06:48:29;;;;;;;1.80;1.80;;;;;;;;;;6313846;28;20289;-61
2024/03/09 06:51:33;;;;;;;1.60;1.60;;;;;;;;;;6314948;28;20301;-59
2024/03/09 06:54:37;;;;;;;1.90;1.80;;;;;;;;;;6296345;28;20293;-59
2024/03/09 06:57:41;;;;;;;1.63;1.63;;;;;;;;;;6314385;28;20294;-60
2024/03/09 07:00:45;;;;;;;3.00;2.10;;;;;;;;;;6314553;28;20301;-59
2024/03/09 07:03:51;;;;;;;1.80;1.70;;;;;;;;;;6313901;28;20298;-60
2024/03/09 07:06:56;;;;;;;1.93;1.93;;;;;;;;;;6314458;28;20290;-60
2024/03/09 07:10:00;;;;;;;1.73;1.73;;;;;;;;;;6313199;28;20301;-60
2024/03/09 07:13:05;;;;;;;1.77;1.77;;;;;;;;;;6313022;28;20289;-60
2024/03/09 07:16:10;;;;;;;2.07;1.97;;;;;;;;;;6294968;28;20294;-59
2024/03/09 07:19:16;;;;;;;1.70;1.70;;;;;;;;;;6312877;28;20313;-61
2024/03/09 07:22:21;;;;;;;1.97;1.80;;;;;;;;;;6313143;28;20570;-60
2024/03/09 07:25:27;;;;;;;2.03;2.03;;;;;;;;;;6312554;28;20315;-60
2024/03/09 07:28:31;;;;;;;1.93;1.93;;;;;;;;;;6312756;28;20291;-60
2024/03/09 07:31:36;;;;;;;1.70;1.70;;;;;;;;;;6312816;28;20294;-60
2024/03/09 07:34:41;;;;;;;2.00;2.00;;;;;;;;;;6312613;28;20500;-59
2024/03/09 07:37:45;;;;;;;1.37;1.37;;;;;;;;;;6312482;28;20292;-60
2024/03/09 07:40:50;;;;;;;1.70;1.70;;;;;;;;;;6311903;28;20276;-59
2024/03/09 07:43:54;;;;;;;1.53;1.53;;;;;;;;;;6311969;28;20297;-60
2024/03/09 07:46:58;;;;;;;1.50;1.50;;;;;;;;;;6312246;28;20535;-59
2024/03/09 07:50:04;;;;;;;1.80;1.80;;;;;;;;;;6312000;28;20465;-61
2024/03/09 07:53:08;;;;;;;2.27;1.83;;;;;;;;;;6313167;28;20295;-60
2024/03/09 07:56:12;;;;;;;1.90;1.90;;;;;;;;;;6295236;28;20282;-59
2024/03/09 07:59:17;;;;;;;1.80;1.80;;;;;;;;;;6312753;28;20310;-61
2024/03/09 08:02:21;;;;;;;1.63;1.63;;;;;;;;;;6313074;28;20297;-59
2024/03/09 08:05:28;;;;;;;2.00;1.90;;;;;;;;;;6312590;28;20297;-60
2024/03/09 08:08:32;;;;;;;1.60;1.60;;;;;;;;;;6311633;28;20306;-59
2024/03/09 08:11:36;;;;;;;1.80;1.80;;;;;;;;;;6311971;28;20302;-61
2024/03/09 08:14:41;;;;;;;1.70;1.70;;;;;;;;;;6312537;28;20299;-61
2024/03/09 08:17:45;;;;;;;1.70;1.60;;;;;;;;;;6312641;28;20287;-60
2024/03/09 08:20:50;;;;;;;1.90;1.90;;;;;;;;;;6312647;28;20303;-60
2024/03/09 08:23:54;;;;;;;1.80;1.70;;;;;;;;;;6312234;28;20293;-60
2024/03/09 08:26:59;;;;;;;1.70;1.70;;;;;;;;;;6312659;28;20309;-60
2024/03/09 08:30:04;;;;;;;1.37;1.37;;;;;;;;;;6311976;28;20295;-61
2024/03/09 08:33:09;;;;;;;1.40;1.40;;;;;;;;;;6311734;28;20295;-60
2024/03/09 08:36:20;;;;;;;1.37;1.37;;;;;;;;;;6312064;28;20297;-60
2024/03/09 08:39:25;;;;;;;2.13;2.03;;;;;;;;;;6312023;28;20295;-60
2024/03/09 08:42:31;;;;;;;1.90;1.87;;;;;;;;;;6311387;28;20609;-61
2024/03/09 08:45:35;;;;;;;1.30;1.30;;;;;;;;;;6311526;28;20295;-60
2024/03/09 08:48:39;;;;;;;1.50;1.50;;;;;;;;;;6310557;28;20298;-60
2024/03/09 08:51:44;;;;;;;1.50;1.50;;;;;;;;;;6311928;28;20451;-61
2024/03/09 08:54:50;;;;;;;1.53;1.53;;;;;;;;;;6293320;28;20306;-60
2024/03/09 08:57:54;;;;;;;1.70;1.70;;;;;;;;;;6311322;28;20454;-60
2024/03/09 09:00:57;;;;;;;1.47;1.40;;;;;;;;;;6311721;28;20574;-60
2024/03/09 09:04:04;;;;;;;1.80;1.80;;;;;;;;;;6311247;28;20299;-60
2024/03/09 09:07:09;;;;;;;2.00;1.90;;;;;;;;;;6311685;28;20294;-59
2024/03/09 09:10:14;;;;;;;1.60;1.60;;;;;;;;;;6310395;28;20294;-61
2024/03/09 09:13:19;;;;;;;1.80;1.73;;;;;;;;;;6310813;28;20286;-60
2024/03/09 09:16:24;;;;;;;1.70;1.70;;;;;;;;;;6310957;28;20302;-61
2024/03/09 09:19:28;;;;;;;1.73;1.73;;;;;;;;;;6310562;28;20290;-61
2024/03/09 09:22:33;;;;;;;2.07;1.97;;;;;;;;;;6309806;28;20297;-60
2024/03/09 09:25:38;;;;;;;2.10;2.00;;;;;;;;;;6311249;28;20291;-60
2024/03/09 09:28:42;;;;;;;2.13;2.03;;;;;;;;;;6308997;28;20289;-60
2024/03/09 09:31:46;;;;;;;1.93;1.93;;;;;;;;;;6308858;28;20475;-60
2024/03/09 09:34:51;;;;;;;1.70;1.70;;;;;;;;;;6309167;28;20298;-60
2024/03/09 09:37:57;;;;;;;2.10;2.10;;;;;;;;;;6309533;28;20284;-60
2024/03/09 09:41:04;;;;;;;1.70;1.60;;;;;;;;;;6310291;28;20243;-59
2024/03/09 09:44:11;;;;;;;1.80;1.80;;;;;;;;;;6309721;28;20287;-60
2024/03/09 09:47:16;;;;;;;2.10;2.10;;;;;;;;;;6309483;28;20470;-59
2024/03/09 09:50:20;;;;;;;2.20;2.10;;;;;;;;;;6309236;28;20282;-60
2024/03/09 09:53:25;;;;;;;1.70;1.70;;;;;;;;;;6309361;28;20298;-59
2024/03/09 09:56:29;;;;;;;2.00;1.90;;;;;;;;;;6309230;28;20290;-60
2024/03/09 09:59:34;;;;;;;1.90;1.90;;;;;;;;;;6309463;28;20579;-59
2024/03/09 10:02:38;;;;;;;2.40;2.30;;;;;;;;;;6308930;28;20306;-60
2024/03/09 10:05:42;;;;;;;2.80;2.70;;;;;;;;;;6309326;28;20464;-60
2024/03/09 10:08:52;;;;;;;3.27;2.40;;;;;;;;;;6308664;28;20307;-59
2024/03/09 10:11:56;;;;;;;2.40;2.30;;;;;;;;;;6310220;28;20294;-61
2024/03/09 10:15:12;;;;;;;2.30;2.20;;;;;;;;;;6308515;28;20302;-60
2024/03/09 10:18:17;;;;;;;2.20;2.20;;;;;;;;;;6308915;28;20290;-59
2024/03/09 10:21:33;;;;;;;2.10;2.10;;;;;;;;;;6310624;28;20295;-60
2024/03/09 10:24:53;;;;;;;2.30;2.30;;;;;;;;;;6303764;28;20354;-60
2024/03/09 10:27:58;;;;;;;2.80;2.70;;;;;;;;;;6308960;28;20279;-59
2024/03/09 10:31:03;;;;;;;2.60;2.50;;;;;;;;;;6309513;28;20293;-60
2024/03/09 10:34:10;;;;;;;2.67;2.57;;;;;;;;;;6308589;28;20289;-60
2024/03/09 10:37:17;;;;;;;2.40;2.30;;;;;;;;;;6309041;28;20427;-60
2024/03/09 10:40:24;;;;;;;2.70;2.60;;;;;;;;;;6308274;28;20295;-59
2024/03/09 10:43:28;;;;;;;2.87;2.67;;;;;;;;;;6309097;28;20468;-60
2024/03/09 10:46:35;;;;;;;3.73;2.70;;;;;;;;;;6309425;28;20296;-59
2024/03/09 10:49:47;;;;;;;3.03;2.93;;;;;;;;;;6308472;28;20292;-60
2024/03/09 10:53:15;;;;;;;2.90;2.80;;;;;;;;;;6308266;28;20291;-59
2024/03/09 10:56:23;;;;;;;2.83;2.70;;;;;;;;;;6291138;28;20441;-60
2024/03/09 10:59:27;;;;;;;2.53;2.43;;;;;;;;;;6308576;28;20295;-60
2024/03/09 11:02:34;;;;;;;2.33;2.33;;;;;;;;;;6314802;28;20328;-60
2024/03/09 11:05:39;;;;;;;3.57;2.33;;;;;;;;;;6308273;28;20583;-60
2024/03/09 11:08:43;;;;;;;3.10;3.00;;;;;;;;;;6312047;28;20302;-59
2024/03/09 11:11:49;;;;;;;2.87;2.77;;;;;;;;;;6302008;28;20303;-60
2024/03/09 11:14:53;;;;;;;2.90;2.80;;;;;;;;;;6312932;28;20300;-59
2024/03/09 11:17:58;;;;;;;3.00;2.87;;;;;;;;;;6312635;28;20447;-60
2024/03/09 11:21:02;;;;;;;3.13;3.03;;;;;;;;;;6298276;28;20301;-60
2024/03/09 11:24:11;;;;;;;2.70;2.70;;;;;;;;;;6288002;28;20316;-60
2024/03/09 11:27:19;;;;;;;3.40;3.10;;;;;;;;;;6288269;28;20287;-60
2024/03/09 11:30:29;;;;;;;2.73;2.60;;;;;;;;;;6287150;28;20295;-60
2024/03/09 11:33:34;;;;;;;3.27;3.00;;;;;;;;;;6287244;28;20303;-59
2024/03/09 11:36:51;;;;;;;3.87;2.70;;;;;;;;;;6272470;28;20298;-60
2024/03/09 11:39:55;;;;;;;2.80;2.70;;;;;;;;;;6311949;28;20295;-60
2024/03/09 11:43:03;;;;;;;2.73;2.63;;;;;;;;;;6312189;28;20296;-58
2024/03/09 11:46:09;;;;;;;2.67;2.57;;;;;;;;;;6313115;28;20305;-59
2024/03/09 11:49:14;;;;;;;2.80;2.70;;;;;;;;;;6292601;28;20527;-60
2024/03/09 11:52:21;;;;;;;2.67;2.67;;;;;;;;;;6312499;28;20294;-59
2024/03/09 11:55:27;;;;;;;5.40;2.57;;;;;;;;;;6311249;28;20300;-59
2024/03/09 11:58:33;;;;;;;3.03;2.93;;;;;;;;;;6311067;28;20324;-59
2024/03/09 12:01:37;;;;;;;2.93;2.83;;;;;;;;;;6312350;28;20306;-59
2024/03/09 12:04:41;;;;;;;3.33;3.23;;;;;;;;;;6311930;28;20297;-59
2024/03/09 12:07:47;;;;;;;3.57;3.20;;;;;;;;;;6311257;28;20291;-59
2024/03/09 12:10:52;;;;;;;2.97;2.70;;;;;;;;;;6302946;28;20283;-61
2024/03/09 12:13:57;;;;;;;3.30;3.10;;;;;;;;;;6311388;28;20305;-60
2024/03/09 12:17:03;;;;;;;3.07;2.87;;;;;;;;;;6311780;28;20243;-60
2024/03/09 12:20:12;;;;;;;2.97;2.60;;;;;;;;;;6311570;28;20288;-60
2024/03/09 12:23:19;;;;;;;2.43;2.43;;;;;;;;;;6310818;28;20461;-60
2024/03/09 12:26:25;;;;;;;2.27;2.17;;;;;;;;;;6312699;28;20296;-61
2024/03/09 12:29:33;;;;;;;2.60;2.40;;;;;;;;;;6310264;28;20294;-61
2024/03/09 12:32:38;;;;;;;3.20;2.27;;;;;;;;;;6310679;28;20303;-58
2024/03/09 12:35:42;;;;;;;3.07;2.90;;;;;;;;;;6311051;28;20572;-60
2024/03/09 12:38:47;;;;;;;2.63;2.53;;;;;;;;;;6311201;28;20293;-60
2024/03/09 12:41:53;;;;;;;2.70;2.60;;;;;;;;;;6311109;28;20291;-60
2024/03/09 12:44:59;;;;;;;4.47;2.40;;;;;;;;;;6310767;28;20361;-59
2024/03/09 12:48:03;;;;;;;2.50;2.40;;;;;;;;;;6310771;28;20291;-59
2024/03/09 12:51:07;;;;;;;3.10;2.80;;;;;;;;;;6311519;28;20293;-60
2024/03/09 12:54:12;;;;;;;2.93;2.73;;;;;;;;;;6310588;28;20402;-60
2024/03/09 12:57:17;;;;;;;2.60;2.50;;;;;;;;;;6310893;28;20471;-60
2024/03/09 13:00:25;;;;;;;2.83;2.60;;;;;;;;;;6310044;28;20589;-61
2024/03/09 13:03:28;;;;;;;2.30;2.30;;;;;;;;;;6310523;28;20451;-61
2024/03/09 13:06:32;;;;;;;2.10;2.07;;;;;;;;;;6310800;28;20481;-60
2024/03/09 13:09:36;;;;;;;2.30;2.30;;;;;;;;;;6309826;28;20301;-61
2024/03/09 13:12:41;;;;;;;2.20;2.20;;;;;;;;;;6309960;28;20298;-59
2024/03/09 13:15:52;;;;;;;2.40;2.23;;;;;;;;;;6310651;28;20294;-61
2024/03/09 13:19:01;;;;;;;2.87;2.77;;;;;;;;;;6309587;28;20254;-59
2024/03/09 13:22:06;;;;;;;2.77;2.67;;;;;;;;;;6309494;28;20298;-60
2024/03/09 13:25:10;;;;;;;2.60;2.50;;;;;;;;;;6309548;28;20298;-60
2024/03/09 13:28:15;;;;;;;3.23;2.13;;;;;;;;;;6309788;28;20280;-60
2024/03/09 13:31:22;;;;;;;2.40;2.40;;;;;;;;;;6310121;28;20286;-60
2024/03/09 13:34:29;;;;;;;2.10;2.10;;;;;;;;;;6309805;28;20302;-59
2024/03/09 13:37:37;;;;;;;2.20;2.20;;;;;;;;;;6309727;28;20296;-59
2024/03/09 13:40:41;;;;;;;2.90;2.53;;;;;;;;;;6310126;28;20296;-58
2024/03/09 13:43:48;;;;;;;3.23;2.13;;;;;;;;;;6308023;28;20300;-60
2024/03/09 13:46:53;;;;;;;2.60;2.40;;;;;;;;;;6309873;28;20243;-61
2024/03/09 13:49:57;;;;;;;2.03;2.03;;;;;;;;;;6309450;28;20582;-60
2024/03/09 13:53:01;;;;;;;1.93;1.93;;;;;;;;;;6308344;28;20295;-60
2024/03/09 13:56:12;;;;;;;3.70;2.40;;;;;;;;;;6309623;28;20231;-59
2024/03/09 13:59:19;;;;;;;2.00;2.00;;;;;;;;;;6309276;28;20296;-60
2024/03/09 14:02:25;;;;;;;2.47;2.37;;;;;;;;;;6309582;28;20291;-60
2024/03/09 14:05:29;;;;;;;2.80;2.60;;;;;;;;;;6308858;28;20286;-59
2024/03/09 14:08:34;;;;;;;2.40;2.40;;;;;;;;;;6308923;28;20307;-59
2024/03/09 14:11:38;;;;;;;2.40;2.30;;;;;;;;;;6309043;28;20480;-60
2024/03/09 14:14:42;;;;;;;2.67;2.60;;;;;;;;;;6308115;28;20342;-60
2024/03/09 14:17:48;;;;;;;5.93;2.60;;;;;;;;;;6308874;28;20292;-59
2024/03/09 14:20:52;;;;;;;3.00;2.90;;;;;;;;;;6309752;28;20347;-61
2024/03/09 14:23:57;;;;;;;2.70;2.60;;;;;;;;;;6309154;28;20296;-61
2024/03/09 14:27:01;;;;;;;2.80;2.70;;;;;;;;;;6309815;28;20296;-61
2024/03/09 14:30:09;;;;;;;2.40;2.40;;;;;;;;;;6308984;28;20613;-60
2024/03/09 14:33:15;;;;;;;2.67;2.57;;;;;;;;;;6308821;28;20303;-60
2024/03/09 14:36:21;;;;;;;2.80;2.70;;;;;;;;;;6309046;28;20493;-60
2024/03/09 14:39:25;;;;;;;2.53;2.43;;;;;;;;;;6308755;28;20310;-60
2024/03/09 14:42:31;;;;;;;2.60;2.50;;;;;;;;;;6311421;28;20385;-60
2024/03/09 14:45:36;;;;;;;2.70;2.70;;;;;;;;;;6314312;28;20298;-60
2024/03/09 14:48:44;;;;;;;2.80;2.67;;;;;;;;;;6314442;28;20289;-60
2024/03/09 14:51:48;;;;;;;3.00;2.80;;;;;;;;;;6314478;28;20297;-59
2024/03/09 14:54:52;;;;;;;2.80;2.70;;;;;;;;;;6312706;28;20297;-59
2024/03/09 14:57:58;;;;;;;2.80;2.70;;;;;;;;;;6313201;28;20291;-59
2024/03/09 15:01:04;;;;;;;2.87;2.77;;;;;;;;;;6295627;28;20293;-58
2024/03/09 15:04:09;;;;;;;2.50;2.40;;;;;;;;;;6312992;28;20297;-59
2024/03/09 15:07:14;;;;;;;2.50;2.40;;;;;;;;;;6313858;28;20295;-61
2024/03/09 15:10:20;;;;;;;2.60;2.40;;;;;;;;;;6312544;28;20307;-60
2024/03/09 15:13:24;;;;;;;2.57;2.47;;;;;;;;;;6313586;28;20409;-61
2024/03/09 15:16:28;;;;;;;2.60;2.50;;;;;;;;;;6313365;28;20483;-60
2024/03/09 15:19:33;;;;;;;2.83;2.40;;;;;;;;;;6312890;28;20605;-60
2024/03/09 15:22:37;;;;;;;2.30;2.23;;;;;;;;;;6312168;28;20295;-60
2024/03/09 15:25:41;;;;;;;2.63;2.53;;;;;;;;;;6313050;28;20305;-59
2024/03/09 15:28:46;;;;;;;2.40;2.40;;;;;;;;;;6311715;28;20310;-60
2024/03/09 15:31:50;;;;;;;2.57;2.57;;;;;;;;;;6312774;28;20249;-60
2024/03/09 15:34:55;;;;;;;2.63;2.53;;;;;;;;;;6312153;28;20306;-60
2024/03/09 15:37:59;;;;;;;2.60;2.50;;;;;;;;;;6312320;28;20297;-60
2024/03/09 15:41:03;;;;;;;2.40;2.40;;;;;;;;;;6313171;28;20500;-60
2024/03/09 15:44:07;;;;;;;2.80;2.70;;;;;;;;;;6312862;28;20558;-59
2024/03/09 15:47:12;;;;;;;3.13;2.93;;;;;;;;;;6312818;28;20294;-60
2024/03/09 15:50:24;;;;;;;2.33;2.33;;;;;;;;;;6293699;28;20291;-60
2024/03/09 15:53:28;;;;;;;2.40;2.40;;;;;;;;;;6311443;28;20294;-60
2024/03/09 15:56:34;;;;;;;3.63;3.33;;;;;;;;;;6312274;28;20302;-59
2024/03/09 15:59:39;;;;;;;2.87;2.77;;;;;;;;;;6311443;28;20293;-61
2024/03/09 16:02:42;;;;;;;2.70;2.57;;;;;;;;;;6311877;28;20306;-60
2024/03/09 16:05:48;;;;;;;2.60;2.53;;;;;;;;;;6312231;28;20293;-61
2024/03/09 16:08:52;;;;;;;2.93;2.67;;;;;;;;;;6311493;28;20625;-60
2024/03/09 16:11:56;;;;;;;2.77;2.57;;;;;;;;;;6311997;28;20290;-61
2024/03/09 16:15:00;;;;;;;3.10;2.90;;;;;;;;;;6311858;28;20296;-61
2024/03/09 16:18:05;;;;;;;3.37;3.17;;;;;;;;;;6311952;28;20293;-59
2024/03/09 16:21:10;;;;;;;2.90;2.70;;;;;;;;;;6311998;28;20304;-59
2024/03/09 16:24:14;;;;;;;2.90;2.80;;;;;;;;;;6311193;28;20309;-59
2024/03/09 16:27:18;;;;;;;3.27;3.07;;;;;;;;;;6311711;28;20298;-60
2024/03/09 16:30:28;;;;;;;2.97;2.87;;;;;;;;;;6311133;28;20292;-59
2024/03/09 16:33:32;;;;;;;3.70;3.40;;;;;;;;;;6310957;28;20295;-59
2024/03/09 16:36:38;;;;;;;3.40;3.30;;;;;;;;;;6311549;28;20556;-59
2024/03/09 16:39:42;;;;;;;3.40;3.20;;;;;;;;;;6311018;28;20310;-59
2024/03/09 16:42:46;;;;;;;3.17;2.93;;;;;;;;;;6310636;28;20290;-60
2024/03/09 16:45:52;;;;;;;3.10;3.00;;;;;;;;;;6311503;28;20323;-59
2024/03/09 16:48:57;;;;;;;3.17;3.00;;;;;;;;;;6292367;28;20319;-61
2024/03/09 16:52:07;;;;;;;3.20;2.80;;;;;;;;;;6311492;28;20528;-60
2024/03/09 16:55:12;;;;;;;3.13;2.83;;;;;;;;;;6310009;28;20302;-59
2024/03/09 16:58:16;;;;;;;2.80;2.70;;;;;;;;;;6310747;28;20291;-59
2024/03/09 17:01:23;;;;;;;3.17;3.07;;;;;;;;;;6311167;28;20291;-60
2024/03/09 17:04:29;;;;;;;2.87;2.70;;;;;;;;;;6309742;28;20581;-60
2024/03/09 17:07:35;;;;;;;3.17;2.90;;;;;;;;;;6310218;28;20296;-60
2024/03/09 17:10:39;;;;;;;2.77;2.67;;;;;;;;;;6309787;28;20306;-59
2024/03/09 17:13:46;;;;;;;3.10;2.90;;;;;;;;;;6309879;28;20597;-60
2024/03/09 17:16:52;;;;;;;2.93;2.83;;;;;;;;;;6309403;28;20286;-60
2024/03/09 17:19:56;;;;;;;6.03;3.00;;;;;;;;;;6309300;28;20299;-62
2024/03/09 17:23:02;;;;;;;2.70;2.60;;;;;;;;;;6310042;28;20296;-60
2024/03/09 17:26:07;;;;;;;3.17;2.97;;;;;;;;;;6310179;28;20576;-60
2024/03/09 17:29:11;;;;;;;2.73;2.63;;;;;;;;;;6309876;28;20294;-61
2024/03/09 17:32:17;;;;;;;2.77;2.67;;;;;;;;;;6293238;28;20295;-60
2024/03/09 17:35:22;;;;;;;3.87;3.00;;;;;;;;;;6284513;28;20311;-60
2024/03/09 17:38:28;;;;;;;3.10;2.90;;;;;;;;;;6284397;28;20291;-61
2024/03/09 17:41:32;;;;;;;2.47;2.37;;;;;;;;;;6285006;28;20298;-60
2024/03/09 17:44:36;;;;;;;2.50;2.47;;;;;;;;;;6284645;28;20295;-61
2024/03/09 17:47:40;;;;;;;2.53;2.43;;;;;;;;;;6284141;28;20290;-59
2024/03/09 17:50:46;;;;;;;2.87;2.77;;;;;;;;;;6285187;28;20294;-60
2024/03/09 17:53:51;;;;;;;2.50;2.40;;;;;;;;;;6284658;28;20296;-60
2024/03/09 17:56:56;;;;;;;2.83;2.70;;;;;;;;;;6284964;28;20303;-61
2024/03/09 18:00:00;;;;;;;3.03;2.60;;;;;;;;;;6284653;28;20292;-61
2024/03/09 18:03:13;;;;;;;3.53;2.63;;;;;;;;;;6288498;28;20288;-61
2024/03/09 18:06:18;;;;;;;2.40;2.40;;;;;;;;;;6284931;28;20303;-60
2024/03/09 18:09:23;;;;;;;3.37;3.27;;;;;;;;;;6284521;28;20328;-60
2024/03/09 18:12:28;;;;;;;3.03;2.20;;;;;;;;;;6300322;28;20364;-62
2024/03/09 18:15:33;;;;;;;2.60;2.50;;;;;;;;;;6310553;28;20568;-61
2024/03/09 18:18:36;;;;;;;3.67;3.30;;;;;;;;;;6316563;28;20357;-59
2024/03/09 18:21:42;;;;;;;2.37;2.10;;;;;;;;;;6317280;28;20306;-60
2024/03/09 18:24:47;;;;;;;2.93;2.73;;;;;;;;;;6306577;28;20302;-59
2024/03/09 18:27:52;;;;;;;2.60;2.50;;;;;;;;;;6317568;28;20285;-60
2024/03/09 18:30:57;;;;;;;2.47;2.30;;;;;;;;;;6317563;28;20290;-61
2024/03/09 18:34:01;;;;;;;2.43;2.33;;;;;;;;;;6316374;28;20590;-59
2024/03/09 18:37:07;;;;;;;2.40;2.30;;;;;;;;;;6317501;28;20479;-58
2024/03/09 18:40:13;;;;;;;2.50;2.40;;;;;;;;;;6317132;28;20294;-60